createdAt,value
2022-12-25T00:02:48.632Z,73.18
2022-12-25T00:07:44.911Z,73.35
2022-12-25T00:12:41.160Z,73.80
2022-12-25T00:17:37.576Z,74.15
2022-12-25T00:22:34.956Z,75.20
2022-12-25T00:27:31.867Z,75.53
2022-12-25T00:32:28.099Z,74.25
2022-12-25T00:37:24.305Z,77.72
2022-12-25T00:42:20.601Z,74.78
2022-12-25T00:47:17.515Z,75.50
2022-12-25T00:52:13.856Z,75.68
2022-12-25T00:57:10.087Z,78.60
2022-12-25T01:02:24.716Z,79.63
2022-12-25T01:07:21.768Z,78.50
2022-12-25T01:12:17.958Z,78.93
2022-12-25T01:17:14.141Z,79.72
2022-12-25T01:22:10.371Z,84.10
2022-12-25T01:27:06.593Z,82.90
2022-12-25T01:32:02.911Z,82.57
2022-12-25T01:36:59.232Z,81.35
2022-12-25T01:41:55.699Z,74.90
2022-12-25T01:46:51.999Z,72.18
2022-12-25T01:51:51.884Z,68.63
2022-12-25T01:56:49.728Z,68.05
2022-12-25T02:01:46.263Z,66.47
2022-12-25T02:06:42.779Z,70.75
2022-12-25T02:11:57.149Z,72.65
2022-12-25T02:16:58.954Z,68.93
2022-12-25T02:22:06.190Z,74.28
2022-12-25T02:27:18.166Z,73.88
2022-12-25T02:32:14.498Z,72.25
2022-12-25T02:37:14.677Z,77.28
2022-12-25T02:42:17.772Z,78.32
2022-12-25T02:47:32.782Z,77.68
2022-12-25T02:52:48.375Z,80.20
2022-12-25T02:58:05.321Z,80.00
2022-12-25T03:03:22.691Z,82.60
2022-12-25T03:08:21.506Z,80.90
2022-12-25T03:13:23.311Z,83.38
2022-12-25T03:18:24.193Z,81.60
2022-12-25T03:23:40.760Z,82.00
2022-12-25T03:28:37.004Z,84.63
2022-12-25T03:34:06.565Z,82.55
2022-12-25T03:39:28.569Z,86.72
2022-12-25T03:45:01.866Z,81.75
2022-12-25T03:50:16.820Z,82.10
2022-12-25T03:55:33.573Z,79.80
2022-12-25T04:00:48.731Z,79.85
2022-12-25T04:06:03.778Z,76.53
2022-12-25T04:11:18.830Z,80.30
2022-12-25T04:16:33.699Z,77.88
2022-12-25T04:21:48.726Z,83.15
2022-12-25T04:27:03.779Z,80.88
2022-12-25T04:32:18.760Z,77.45
2022-12-25T04:37:14.962Z,75.47
2022-12-25T04:42:11.235Z,76.65
2022-12-25T04:47:11.102Z,76.05
2022-12-25T04:52:08.101Z,75.47
2022-12-25T04:57:04.473Z,75.13
2022-12-25T05:02:00.782Z,71.82
2022-12-25T05:06:57.048Z,72.22
2022-12-25T05:11:53.282Z,73.95
2022-12-25T05:16:49.562Z,71.47
2022-12-25T05:21:45.807Z,72.53
2022-12-25T05:26:41.995Z,72.70
2022-12-25T05:31:38.250Z,74.32
2022-12-25T05:36:34.497Z,71.20
2022-12-25T05:41:34.133Z,72.38
2022-12-25T05:46:31.235Z,70.22
2022-12-25T05:51:27.563Z,72.10
2022-12-25T05:56:23.758Z,71.63
2022-12-25T06:01:21.251Z,72.07
2022-12-25T06:06:17.725Z,69.85
2022-12-25T06:11:14.826Z,72.43
2022-12-25T06:16:11.871Z,71.10
2022-12-25T06:21:09.628Z,70.95
2022-12-25T06:26:09.987Z,70.68
2022-12-25T06:31:07.615Z,69.97
2022-12-25T06:36:04.841Z,70.03
2022-12-25T06:41:04.814Z,70.18
2022-12-25T06:46:05.074Z,70.38
2022-12-25T06:51:02.210Z,68.88
2022-12-25T06:56:05.620Z,70.93
2022-12-25T07:01:06.570Z,68.80
2022-12-25T07:06:02.977Z,70.60
2022-12-25T07:10:59.622Z,73.72
2022-12-25T07:15:56.714Z,70.90
2022-12-25T07:20:55.121Z,68.70
2022-12-25T07:25:54.806Z,69.00
2022-12-25T07:30:51.057Z,71.72
2022-12-25T07:35:47.317Z,69.60
2022-12-25T07:40:45.421Z,72.70
2022-12-25T07:45:41.831Z,73.13
2022-12-25T07:50:38.067Z,71.85
2022-12-25T07:55:34.345Z,72.88
2022-12-25T08:00:32.719Z,72.32
2022-12-25T08:05:29.074Z,74.15
2022-12-25T08:10:25.314Z,73.38
2022-12-25T08:15:21.565Z,70.63
2022-12-25T08:20:17.833Z,75.25
2022-12-25T08:25:15.779Z,72.70
2022-12-25T08:30:12.124Z,71.50
2022-12-25T08:35:08.528Z,74.68
2022-12-25T08:40:05.720Z,75.93
2022-12-25T08:45:01.926Z,71.65
2022-12-25T08:49:58.138Z,71.95
2022-12-25T08:54:54.795Z,70.72
2022-12-25T08:59:51.015Z,74.13
2022-12-25T09:04:47.219Z,72.97
2022-12-25T09:09:43.511Z,70.25
2022-12-25T09:14:39.765Z,69.22
2022-12-25T09:19:36.001Z,69.60
2022-12-25T09:24:32.261Z,72.07
2022-12-25T09:29:28.459Z,72.10
2022-12-25T09:34:24.750Z,69.10
2022-12-25T09:39:21.008Z,66.63
2022-12-25T09:44:25.593Z,67.78
2022-12-25T09:49:29.743Z,64.28
2022-12-25T09:54:36.948Z,66.72
2022-12-25T09:59:33.140Z,63.20
2022-12-25T10:04:42.508Z,63.80
2022-12-25T10:09:50.776Z,63.90
2022-12-25T10:14:52.708Z,64.18
2022-12-25T10:20:08.279Z,63.03
2022-12-25T10:25:06.778Z,60.05
2022-12-25T10:30:06.482Z,64.75
2022-12-25T10:35:02.688Z,60.25
2022-12-25T10:39:58.953Z,61.60
2022-12-25T10:44:56.770Z,58.92
2022-12-25T10:49:53.993Z,61.75
2022-12-25T10:54:50.572Z,61.63
2022-12-25T10:59:48.090Z,60.33
2022-12-25T11:04:44.362Z,62.40
2022-12-25T11:09:40.582Z,66.43
2022-12-25T11:14:36.991Z,62.45
2022-12-25T11:19:35.039Z,64.40
2022-12-25T11:24:31.739Z,62.03
2022-12-25T11:29:43.398Z,66.03
2022-12-25T11:34:46.820Z,64.30
2022-12-25T11:39:43.157Z,64.25
2022-12-25T11:44:45.821Z,60.53
2022-12-25T11:54:56.749Z,63.33
2022-12-25T11:59:55.963Z,66.85
2022-12-25T12:05:00.792Z,62.63
2022-12-25T12:10:02.922Z,65.15
2022-12-25T12:15:18.020Z,61.92
2022-12-25T12:20:34.517Z,61.83
2022-12-25T12:25:31.073Z,62.17
2022-12-25T12:30:28.993Z,61.17
2022-12-25T12:35:30.046Z,63.05
2022-12-25T12:40:31.146Z,62.75
2022-12-25T12:45:29.603Z,61.15
2022-12-25T12:50:30.832Z,62.00
2022-12-25T12:55:28.285Z,62.63
2022-12-25T13:00:24.754Z,64.90
2022-12-25T13:05:39.715Z,66.80
2022-12-25T13:10:38.880Z,63.97
2022-12-25T13:15:35.431Z,67.65
2022-12-25T13:20:35.973Z,66.07
2022-12-25T13:25:32.183Z,67.20
2022-12-25T13:30:28.459Z,67.18
2022-12-25T13:35:24.963Z,68.47
2022-12-25T13:40:25.182Z,65.18
2022-12-25T13:45:23.717Z,65.18
2022-12-25T13:50:19.880Z,65.13
2022-12-25T13:55:20.305Z,66.43
2022-12-25T14:00:36.873Z,65.28
2022-12-25T14:05:42.268Z,64.75
2022-12-25T14:10:40.374Z,65.93
2022-12-25T14:15:38.482Z,67.72
2022-12-25T14:20:36.701Z,65.05
2022-12-25T14:25:51.021Z,68.35
2022-12-25T14:30:47.452Z,67.38
2022-12-25T14:35:44.299Z,67.20
2022-12-25T14:40:43.178Z,67.07
2022-12-25T14:45:39.444Z,64.82
2022-12-25T14:50:39.317Z,68.60
2022-12-25T14:55:37.100Z,67.00
2022-12-25T15:00:37.390Z,67.55
2022-12-25T15:05:33.745Z,69.60
2022-12-25T15:10:59.013Z,70.22
2022-12-25T15:15:51.926Z,71.82
2022-12-25T15:20:51.057Z,63.60
2022-12-25T15:25:47.524Z,66.30
2022-12-25T15:30:44.202Z,68.13
2022-12-25T15:35:40.465Z,64.80
2022-12-25T15:40:36.877Z,67.97
2022-12-25T15:45:33.209Z,67.03
2022-12-25T15:50:30.084Z,67.15
2022-12-25T15:55:26.294Z,64.05
2022-12-25T16:00:23.097Z,62.55
2022-12-25T16:05:19.490Z,65.13
2022-12-25T16:10:19.476Z,67.65
2022-12-25T16:15:15.791Z,65.75
2022-12-25T16:20:12.174Z,64.00
2022-12-25T16:25:16.698Z,66.60
2022-12-25T16:30:14.274Z,61.88
2022-12-25T16:35:11.305Z,62.13
2022-12-25T16:40:09.426Z,61.75
2022-12-25T16:45:06.196Z,61.00
2022-12-25T16:50:03.703Z,61.17
2022-12-25T16:55:00.275Z,62.92
2022-12-25T16:59:57.458Z,63.45
2022-12-25T17:04:54.540Z,61.35
2022-12-25T17:09:50.764Z,62.08
2022-12-25T17:14:46.960Z,61.33
2022-12-25T17:19:43.238Z,62.63
2022-12-25T17:24:41.394Z,62.03
2022-12-25T17:29:40.417Z,61.83
2022-12-25T17:34:37.276Z,61.70
2022-12-25T17:39:33.521Z,61.65
2022-12-25T17:44:29.780Z,62.22
2022-12-25T17:49:26.066Z,62.70
2022-12-25T17:54:22.453Z,64.45
2022-12-25T17:59:19.096Z,65.45
2022-12-25T18:04:15.614Z,64.32
2022-12-25T18:09:12.131Z,64.95
2022-12-25T18:14:11.110Z,64.38
2022-12-25T18:19:08.933Z,66.32
2022-12-25T18:24:05.714Z,67.97
2022-12-25T18:29:02.249Z,64.28
2022-12-25T18:33:59.580Z,64.95
2022-12-25T18:38:56.729Z,63.72
2022-12-25T18:43:55.634Z,65.50
2022-12-25T18:48:52.958Z,65.90
2022-12-25T18:53:49.395Z,65.78
2022-12-25T18:58:46.399Z,64.70
2022-12-25T19:03:43.437Z,64.20
2022-12-25T19:08:39.667Z,63.95
2022-12-25T19:13:35.887Z,66.57
2022-12-25T19:18:32.122Z,65.32
2022-12-25T19:23:28.369Z,67.25
2022-12-25T19:28:25.050Z,66.28
2022-12-25T19:33:21.684Z,65.95
2022-12-25T19:38:19.424Z,65.97
2022-12-25T19:43:15.631Z,64.78
2022-12-25T19:48:11.870Z,65.93
2022-12-25T19:53:08.104Z,65.38
2022-12-25T19:58:04.333Z,64.75
2022-12-25T20:03:01.275Z,63.70
2022-12-25T20:07:57.730Z,64.68
2022-12-25T20:12:54.036Z,62.95
2022-12-25T20:17:50.249Z,62.33
2022-12-25T20:22:46.515Z,60.72
2022-12-25T20:27:42.904Z,62.50
2022-12-25T20:32:40.714Z,60.88
2022-12-25T20:37:38.700Z,59.08
2022-12-25T20:42:35.096Z,59.97
2022-12-25T20:47:31.350Z,58.58
2022-12-25T20:52:27.597Z,60.47
2022-12-25T20:57:23.849Z,60.22
2022-12-25T21:02:34.569Z,61.35
2022-12-25T21:07:32.717Z,62.03
2022-12-25T21:12:29.008Z,60.15
2022-12-25T21:17:25.308Z,60.15
2022-12-25T21:22:21.615Z,60.63
2022-12-25T21:27:17.876Z,60.75
2022-12-25T21:32:32.989Z,62.65
2022-12-25T21:37:31.054Z,63.40
2022-12-25T21:42:27.339Z,60.42
2022-12-25T21:47:23.650Z,61.85
2022-12-25T21:52:19.869Z,61.10
2022-12-25T21:57:16.055Z,63.22
2022-12-25T22:02:12.459Z,63.08
2022-12-25T22:07:17.809Z,63.83
2022-12-25T22:12:34.550Z,64.80
2022-12-25T22:17:51.517Z,63.72
2022-12-25T22:22:47.865Z,65.30
2022-12-25T22:27:45.085Z,64.95
2022-12-25T22:32:41.619Z,64.63
2022-12-25T22:37:38.011Z,62.67
2022-12-25T22:42:34.786Z,64.68
2022-12-25T22:47:31.219Z,68.95
2022-12-25T22:52:27.511Z,66.90
2022-12-25T22:57:23.827Z,67.75
2022-12-25T23:02:20.610Z,67.95
2022-12-25T23:07:17.158Z,65.95
2022-12-25T23:12:33.424Z,65.95
2022-12-25T23:17:48.442Z,65.07
2022-12-25T23:23:03.325Z,66.13
2022-12-25T23:27:59.568Z,66.90
2022-12-25T23:32:56.323Z,64.25
2022-12-25T23:37:53.828Z,65.93
2022-12-25T23:42:50.137Z,66.22
2022-12-25T23:47:46.398Z,64.32
2022-12-25T23:52:42.676Z,65.43
2022-12-25T23:57:38.919Z,64.07
